Buoy 46562

sailwx.info

Track history (hours):
 
Tides and Currents Weather Stations Pressure Air Temp Water Temp Dewpoint Dewpoint Depression Visibility Wind Speed Wind Dir Waves Ship Positions

Drifting buoy 46562

Last reported at 2014-Sep-01 23:00 UTC. Time now 2014-Sep-01 23:53 UTC.
Position N 58°24' W 138°42'.

Water temperature 15.0 ° C

Date/timePositionNaut miles runAvg speedWind from/ knotsBaromVisibWave heightAir tempDewpointWater temp
2014-Sep-01 23:00N 58°24' W 138°42'0 0.1 15.0
2014-Sep-01 21:00N 58°24' W 138°42'0 0.2 15.0
2014-Sep-01 20:00N 58°24' W 138°42'0 0.0 15.0
2014-Sep-01 19:00N 58°24' W 138°42'1 0.9 15.1
2014-Sep-01 18:00N 58°25' W 138°43'0 0.0 15.1
2014-Sep-01 16:00N 58°25' W 138°43'1 1.1 15.0
2014-Sep-01 15:00N 58°26' W 138°42'0 0.0 14.9
2014-Sep-01 14:00N 58°26' W 138°42'1 0.9 14.8
2014-Sep-01 13:00N 58°26' W 138°43'1 0.5 14.7
2014-Sep-01 12:00N 58°26' W 138°44'1 0.9 14.6
2014-Sep-01 11:00N 58°26' W 138°46'0 0.0 14.7
2014-Sep-01 08:00N 58°26' W 138°46'1 0.8 14.9
2014-Sep-01 07:00N 58°26' W 138°44'0 0.0 14.8
2014-Sep-01 06:00N 58°26' W 138°44'0 0.3 14.8
2014-Sep-01 05:00N 58°26' W 138°44'1 0.7 14.8
2014-Sep-01 04:00N 58°27' W 138°43'0 0.4 14.7
2014-Sep-01 03:00N 58°26' W 138°43'2 1.0 14.7
2014-Sep-01 01:00N 58°25' W 138°44'0 0.2 14.7
2014-Aug-31 23:00N 58°24' W 138°44'1 0.7 14.9
2014-Aug-31 22:00N 58°24' W 138°44'1 0.6 15.0
2014-Aug-31 21:00N 58°24' W 138°43'1 1.2 15.1
2014-Aug-31 20:00N 58°23' W 138°41'0 0.0 15.2
2014-Aug-31 19:00N 58°23' W 138°41'1 1.3 15.2
2014-Aug-31 18:00N 58°22' W 138°39'0 0.1 15.1
2014-Aug-31 17:00N 58°22' W 138°39'0 0.0 15.1
2014-Aug-31 16:00N 58°22' W 138°39'1 0.7 15.1
2014-Aug-31 15:00N 58°22' W 138°38'0 0.1 15.1
2014-Aug-31 14:00N 58°22' W 138°38'0 0.3 15.1
2014-Aug-31 13:00N 58°22' W 138°37'0 0.2 15.1
2014-Aug-31 11:00N 58°22' W 138°38'2 1.0 15.1
2014-Aug-31 09:00N 58°20' W 138°40'0 0.0 15.1
2014-Aug-31 08:00N 58°20' W 138°40'0 0.0 15.1
2014-Aug-31 07:00N 58°20' W 138°40'2 1.8 15.2
2014-Aug-31 06:00N 58°20' W 138°37'0 0.0 15.2
2014-Aug-31 05:00N 58°20' W 138°37'1 0.9 15.2
2014-Aug-31 04:00N 58°20' W 138°35'0 0.4 15.2
2014-Aug-31 03:00N 58°21' W 138°36'0 0.3 15.2
2014-Aug-31 02:00N 58°21' W 138°36'0 0.1 15.3
2014-Aug-31 01:00N 58°21' W 138°36'0 0.4 15.3
2014-Aug-31 00:00N 58°21' W 138°36'0 0.2 15.2
2014-Aug-30 23:00N 58°21' W 138°36'0 0.3 15.2
2014-Aug-30 22:00N 58°21' W 138°37'0 0.0 15.2
2014-Aug-30 21:00N 58°21' W 138°37'0 0.3 15.2
2014-Aug-30 20:00N 58°21' W 138°37'0 0.5 15.1
2014-Aug-30 19:00N 58°20' W 138°36'0 0.5 15.1
2014-Aug-30 18:00N 58°20' W 138°37'1 0.5 15.1
2014-Aug-30 17:00N 58°20' W 138°36'0 0.0 15.1
2014-Aug-30 16:00N 58°20' W 138°36'0 0.3 15.2
2014-Aug-30 15:00N 58°21' W 138°36'0 0.1 15.1
2014-Aug-30 14:00N 58°20' W 138°36'0 0.2 15.1
2014-Aug-30 13:00N 58°21' W 138°36'1 0.6 15.2
2014-Aug-30 12:00N 58°21' W 138°35'2 1.6 15.2
2014-Aug-30 11:00N 58°19' W 138°35'0 0.0 15.2
2014-Aug-30 10:00N 58°19' W 138°35'0 0.1 15.2
2014-Aug-30 06:00N 58°19' W 138°34'1 1.2 15.2
2014-Aug-30 05:00N 58°19' W 138°32'0 0.3 15.2
2014-Aug-30 04:00N 58°19' W 138°32'0 0.0 15.2
2014-Aug-30 03:00N 58°19' W 138°32'1 0.3 15.2
2014-Aug-30 01:00N 58°19' W 138°31'1 0.9 15.1
2014-Aug-30 00:00N 58°19' W 138°29'1 1.3 15.1
2014-Aug-29 23:00N 58°19' W 138°31'2 1.7 15.1
2014-Aug-29 22:00N 58°18' W 138°34'0 0.1 15.1
2014-Aug-29 21:00N 58°17' W 138°34'1 0.7 15.1
2014-Aug-29 20:00N 58°17' W 138°32'2 1.6 15.1
2014-Aug-29 19:00N 58°17' W 138°30'3 0.7 15.1
2014-Aug-29 15:00N 58°15' W 138°26'1 0.4 15.2
2014-Aug-29 12:00N 58°14' W 138°24'2 1.5 15.1
2014-Aug-29 11:00N 58°13' W 138°22'0 0.4 15.1
2014-Aug-29 10:00N 58°13' W 138°23'0 0.4 15.1
2014-Aug-29 09:00N 58°13' W 138°22'3 3.0 15.2
2014-Aug-29 08:00N 58°10' W 138°20'0 0.0 15.2
2014-Aug-29 07:00N 58°10' W 138°20'1 1.0 15.2
2014-Aug-29 06:00N 58°10' W 138°18'0 0.0 15.2
2014-Aug-29 05:00N 58°10' W 138°18'2 1.6 15.3
2014-Aug-29 04:00N 58°09' W 138°15'0 0.0 15.3
2014-Aug-29 03:00N 58°09' W 138°15'1 0.8 15.3
2014-Aug-29 02:00N 58°08' W 138°16'1 0.7 15.4
2014-Aug-29 01:00N 58°08' W 138°16'1 0.7 15.4
2014-Aug-29 00:00N 58°07' W 138°15'0 0.4 15.5
2014-Aug-28 23:00N 58°07' W 138°16'1 0.9 15.5
2014-Aug-28 22:00N 58°06' W 138°16'1 1.3 15.5
2014-Aug-28 21:00N 58°05' W 138°14'0 0.3 15.5
2014-Aug-28 20:00N 58°05' W 138°14'3 0.5 15.5
2014-Aug-28 15:00N 58°04' W 138°09'0 0.2 15.4
2014-Aug-28 14:00N 58°04' W 138°09'0 0.2 15.5
2014-Aug-28 13:00N 58°04' W 138°09'1 1.0 15.5
2014-Aug-28 12:00N 58°04' W 138°11'3 1.6 15.5
2014-Aug-28 10:00N 58°01' W 138°09'1 0.2 15.5
2014-Aug-28 06:00N 58°01' W 138°07'0 0.3 15.6
2014-Aug-28 05:00N 58°01' W 138°07'2 2.0 15.6
2014-Aug-28 04:00N 58°01' W 138°03'1 1.2 15.7
2014-Aug-28 03:00N 58°01' W 138°05'0 0.4 15.7
2014-Aug-28 02:00N 58°01' W 138°05'0 0.2 15.7
2014-Aug-28 00:00N 58°02' W 138°05'0 0.2 15.8
2014-Aug-27 23:00N 58°02' W 138°06'1 1.2 15.8
2014-Aug-27 22:00N 58°01' W 138°08'0 0.2 15.8
2014-Aug-27 21:00N 58°01' W 138°08'0 0.4 15.7
2014-Aug-27 20:00N 58°00' W 138°07'2 0.9 15.6
2014-Aug-27 18:00N 57°59' W 138°05'0 0.0 15.4
2014-Aug-27 17:00N 57°59' W 138°05'1 0.8 15.3
2014-Aug-27 16:00N 57°59' W 138°04'1 0.4 15.3
2014-Aug-27 14:00N 57°60' W 138°03'0 0.4 15.3
2014-Aug-27 13:00N 57°60' W 138°02'0 0.3 15.3
2014-Aug-27 12:00N 58°00' W 138°02'2 1.8 15.3
2014-Aug-27 11:00N 57°59' W 138°04'0 0.0 15.3
2014-Aug-27 07:00N 57°59' W 138°04'0 0.3 15.4
2014-Aug-27 06:00N 57°59' W 138°04'1 0.9 15.4
2014-Aug-27 05:00N 57°58' W 138°03'1 1.4 15.4
2014-Aug-27 04:00N 57°59' W 138°00'0 0.4 15.4
2014-Aug-27 03:00N 57°58' W 138°01'1 0.6 15.5
2014-Aug-27 01:00N 57°59' W 138°00'1 0.7 15.5
2014-Aug-27 00:00N 58°00' W 138°01'0 0.0 15.5
2014-Aug-26 23:00N 58°00' W 138°01'1 1.0 15.4
2014-Aug-26 22:00N 57°60' W 138°03'0 0.1 15.4
2014-Aug-26 21:00N 57°60' W 138°03'1 1.1 15.4
2014-Aug-26 20:00N 57°59' W 138°03'0 0.0 15.4
2014-Aug-26 19:00N 57°59' W 138°03'1 0.8 15.4
2014-Aug-26 18:00N 57°58' W 138°02'0 0.5 15.4
2014-Aug-26 17:00N 57°58' W 138°02'0 0.0 15.3
2014-Aug-26 16:00N 57°58' W 138°03'1 0.9 15.3
2014-Aug-26 15:00N 57°57' W 138°01'1 0.9 15.3
2014-Aug-26 14:00N 57°58' W 138°00'0 0.2 15.3
2014-Aug-26 13:00N 57°58' W 137°60'1 0.7 15.4
2014-Aug-26 12:00N 57°59' W 137°60'0 0.0 15.4
2014-Aug-26 10:00N 57°59' W 137°60'1 0.4 15.4
2014-Aug-26 07:00N 57°59' W 138°02'1 0.3 15.5
2014-Aug-26 05:00N 57°59' W 138°02'0 0.5 15.5
2014-Aug-26 04:00N 57°58' W 138°01'0 0.2 15.5
2014-Aug-26 02:00N 57°58' W 138°01'1 0.7 15.5
2014-Aug-26 01:00N 57°58' W 137°60'0 0.0 15.6
2014-Aug-26 00:00N 57°58' W 137°60'1 0.6 15.6
2014-Aug-25 23:00N 57°59' W 138°00'1 1.0 15.5
2014-Aug-25 22:00N 57°59' W 137°59'1 0.8 15.5
2014-Aug-25 21:00N 57°60' W 137°59'1 0.5 15.4
2014-Aug-25 19:00N 57°59' W 138°01'0 0.0 15.3
2014-Aug-25 18:00N 57°59' W 138°01'0 0.0 15.3
2014-Aug-25 17:00N 57°59' W 138°01'0 0.2 15.3
2014-Aug-25 16:00N 57°59' W 138°01'0 0.4 15.3
2014-Aug-25 15:00N 57°59' W 138°01'0 0.4 15.3
2014-Aug-25 14:00N 57°59' W 138°00'1 1.0 15.3
2014-Aug-25 13:00N 57°58' W 137°59'1 0.5 15.3
2014-Aug-25 12:00N 57°59' W 137°58'0 0.3 15.2
2014-Aug-25 11:00N 57°58' W 137°58'2 0.8 15.2
2014-Aug-25 09:00N 58°00' W 137°58'0 0.2 15.2
2014-Aug-25 07:00N 57°60' W 137°59'0 0.1 15.2
2014-Aug-25 06:00N 57°60' W 137°59'0 0.1 15.2
2014-Aug-25 04:00N 57°60' W 137°59'1 0.8 15.2
2014-Aug-25 03:00N 57°59' W 137°58'1 0.7 15.2
2014-Aug-25 02:00N 57°59' W 137°57'1 0.9 15.2
2014-Aug-25 01:00N 57°58' W 137°57'0 0.0 15.2
2014-Aug-25 00:00N 57°58' W 137°57'0 0.0 15.3
2014-Aug-24 23:00N 57°58' W 137°57'0 0.0 15.4
2014-Aug-24 22:00N 57°58' W 137°57'0 0.4 15.4
2014-Aug-24 21:00N 57°57' W 137°57'0 0.2 15.5
2014-Aug-24 19:00N 57°57' W 137°56'2 0.7 15.6
2014-Aug-24 16:00N 57°55' W 137°57'0 0.2 15.6
2014-Aug-24 15:00N 57°55' W 137°57'1 0.5 15.7
2014-Aug-24 13:00N 57°54' W 137°56'1 0.6 15.7
2014-Aug-24 12:00N 57°54' W 137°54'0 0.2 15.7
2014-Aug-24 11:00N 57°55' W 137°55'1 0.1 15.7
2014-Aug-24 06:00N 57°55' W 137°56'0 0.1 15.7
2014-Aug-24 05:00N 57°55' W 137°56'1 1.0 15.7
2014-Aug-24 04:00N 57°54' W 137°55'1 0.7 15.8
2014-Aug-24 03:00N 57°54' W 137°54'0 0.0 15.9
2014-Aug-24 02:00N 57°54' W 137°54'0 0.0 15.9
2014-Aug-24 01:00N 57°54' W 137°54'1 0.6 15.8
2014-Aug-24 00:00N 57°54' W 137°53'0 0.3 15.7
2014-Aug-23 23:00N 57°54' W 137°52'1 0.3 15.6
2014-Aug-23 21:00N 57°54' W 137°52'2 0.8 15.5
2014-Aug-23 19:00N 57°55' W 137°55'1 0.6 15.4
2014-Aug-23 17:00N 57°54' W 137°53'0 0.0 15.3
2014-Aug-23 16:00N 57°54' W 137°53'0 0.1 15.2
2014-Aug-23 15:00N 57°54' W 137°54'0 0.4 15.2
2014-Aug-23 14:00N 57°54' W 137°53'0 0.3 15.2
2014-Aug-23 13:00N 57°53' W 137°53'1 0.7 15.2
2014-Aug-23 12:00N 57°54' W 137°52'0 0.2 15.2
2014-Aug-23 11:00N 57°54' W 137°51'0 0.1 15.3
2014-Aug-23 09:00N 57°54' W 137°51'1 0.7 15.3
2014-Aug-23 08:00N 57°54' W 137°53'0 0.2 15.4
2014-Aug-23 06:00N 57°54' W 137°52'1 0.9 15.4
2014-Aug-23 05:00N 57°53' W 137°51'0 0.0 15.4
2014-Aug-23 03:00N 57°53' W 137°51'0 0.0 15.4
2014-Aug-23 02:00N 57°53' W 137°51'1 0.7 15.5
2014-Aug-23 01:00N 57°53' W 137°52'0 0.2 15.6
2014-Aug-23 00:00N 57°53' W 137°52'   15.6
Track history (hours):
 
Tides and Currents Weather Stations Pressure Air Temp Water Temp Dewpoint Dewpoint Depression Visibility Wind Speed Wind Dir Waves Ship Positions

Drifting buoy 46562

Last reported at 2014-Sep-01 23:00 UTC. Time now 2014-Sep-01 23:53 UTC.
Position N 58°24' W 138°42'.

Water temperature 15.0 ° C

Date/timePositionNaut miles runAvg speedWind from/ knotsBaromVisibWave heightAir tempDewpointWater temp
2014-Sep-01 23:00N 58°24' W 138°42'0 0.1 15.0
2014-Sep-01 21:00N 58°24' W 138°42'0 0.2 15.0
2014-Sep-01 20:00N 58°24' W 138°42'0 0.0 15.0
2014-Sep-01 19:00N 58°24' W 138°42'1 0.9 15.1
2014-Sep-01 18:00N 58°25' W 138°43'0 0.0 15.1
2014-Sep-01 16:00N 58°25' W 138°43'1 1.1 15.0
2014-Sep-01 15:00N 58°26' W 138°42'0 0.0 14.9
2014-Sep-01 14:00N 58°26' W 138°42'1 0.9 14.8
2014-Sep-01 13:00N 58°26' W 138°43'1 0.5 14.7
2014-Sep-01 12:00N 58°26' W 138°44'1 0.9 14.6
2014-Sep-01 11:00N 58°26' W 138°46'0 0.0 14.7
2014-Sep-01 08:00N 58°26' W 138°46'1 0.8 14.9
2014-Sep-01 07:00N 58°26' W 138°44'0 0.0 14.8
2014-Sep-01 06:00N 58°26' W 138°44'0 0.3 14.8
2014-Sep-01 05:00N 58°26' W 138°44'1 0.7 14.8
2014-Sep-01 04:00N 58°27' W 138°43'0 0.4 14.7
2014-Sep-01 03:00N 58°26' W 138°43'2 1.0 14.7
2014-Sep-01 01:00N 58°25' W 138°44'0 0.2 14.7
2014-Aug-31 23:00N 58°24' W 138°44'1 0.7 14.9
2014-Aug-31 22:00N 58°24' W 138°44'1 0.6 15.0
2014-Aug-31 21:00N 58°24' W 138°43'1 1.2 15.1
2014-Aug-31 20:00N 58°23' W 138°41'0 0.0 15.2
2014-Aug-31 19:00N 58°23' W 138°41'1 1.3 15.2
2014-Aug-31 18:00N 58°22' W 138°39'0 0.1 15.1
2014-Aug-31 17:00N 58°22' W 138°39'0 0.0 15.1
2014-Aug-31 16:00N 58°22' W 138°39'1 0.7 15.1
2014-Aug-31 15:00N 58°22' W 138°38'0 0.1 15.1
2014-Aug-31 14:00N 58°22' W 138°38'0 0.3 15.1
2014-Aug-31 13:00N 58°22' W 138°37'0 0.2 15.1
2014-Aug-31 11:00N 58°22' W 138°38'2 1.0 15.1
2014-Aug-31 09:00N 58°20' W 138°40'0 0.0 15.1
2014-Aug-31 08:00N 58°20' W 138°40'0 0.0 15.1
2014-Aug-31 07:00N 58°20' W 138°40'2 1.8 15.2
2014-Aug-31 06:00N 58°20' W 138°37'0 0.0 15.2
2014-Aug-31 05:00N 58°20' W 138°37'1 0.9 15.2
2014-Aug-31 04:00N 58°20' W 138°35'0 0.4 15.2
2014-Aug-31 03:00N 58°21' W 138°36'0 0.3 15.2
2014-Aug-31 02:00N 58°21' W 138°36'0 0.1 15.3
2014-Aug-31 01:00N 58°21' W 138°36'0 0.4 15.3
2014-Aug-31 00:00N 58°21' W 138°36'0 0.2 15.2
2014-Aug-30 23:00N 58°21' W 138°36'0 0.3 15.2
2014-Aug-30 22:00N 58°21' W 138°37'0 0.0 15.2
2014-Aug-30 21:00N 58°21' W 138°37'0 0.3 15.2
2014-Aug-30 20:00N 58°21' W 138°37'0 0.5 15.1
2014-Aug-30 19:00N 58°20' W 138°36'0 0.5 15.1
2014-Aug-30 18:00N 58°20' W 138°37'1 0.5 15.1
2014-Aug-30 17:00N 58°20' W 138°36'0 0.0 15.1
2014-Aug-30 16:00N 58°20' W 138°36'0 0.3 15.2
2014-Aug-30 15:00N 58°21' W 138°36'0 0.1 15.1
2014-Aug-30 14:00N 58°20' W 138°36'0 0.2 15.1
2014-Aug-30 13:00N 58°21' W 138°36'1 0.6 15.2
2014-Aug-30 12:00N 58°21' W 138°35'2 1.6 15.2
2014-Aug-30 11:00N 58°19' W 138°35'0 0.0 15.2
2014-Aug-30 10:00N 58°19' W 138°35'0 0.1 15.2
2014-Aug-30 06:00N 58°19' W 138°34'1 1.2 15.2
2014-Aug-30 05:00N 58°19' W 138°32'0 0.3 15.2
2014-Aug-30 04:00N 58°19' W 138°32'0 0.0 15.2
2014-Aug-30 03:00N 58°19' W 138°32'1 0.3 15.2
2014-Aug-30 01:00N 58°19' W 138°31'1 0.9 15.1
2014-Aug-30 00:00N 58°19' W 138°29'1 1.3 15.1
2014-Aug-29 23:00N 58°19' W 138°31'2 1.7 15.1
2014-Aug-29 22:00N 58°18' W 138°34'0 0.1 15.1
2014-Aug-29 21:00N 58°17' W 138°34'1 0.7 15.1
2014-Aug-29 20:00N 58°17' W 138°32'2 1.6 15.1
2014-Aug-29 19:00N 58°17' W 138°30'3 0.7 15.1
2014-Aug-29 15:00N 58°15' W 138°26'1 0.4 15.2
2014-Aug-29 12:00N 58°14' W 138°24'2 1.5 15.1
2014-Aug-29 11:00N 58°13' W 138°22'0 0.4 15.1
2014-Aug-29 10:00N 58°13' W 138°23'0 0.4 15.1
2014-Aug-29 09:00N 58°13' W 138°22'3 3.0 15.2
2014-Aug-29 08:00N 58°10' W 138°20'0 0.0 15.2
2014-Aug-29 07:00N 58°10' W 138°20'1 1.0 15.2
2014-Aug-29 06:00N 58°10' W 138°18'0 0.0 15.2
2014-Aug-29 05:00N 58°10' W 138°18'2 1.6 15.3
2014-Aug-29 04:00N 58°09' W 138°15'0 0.0 15.3
2014-Aug-29 03:00N 58°09' W 138°15'1 0.8 15.3
2014-Aug-29 02:00N 58°08' W 138°16'1 0.7 15.4
2014-Aug-29 01:00N 58°08' W 138°16'1 0.7 15.4
2014-Aug-29 00:00N 58°07' W 138°15'0 0.4 15.5
2014-Aug-28 23:00N 58°07' W 138°16'1 0.9 15.5
2014-Aug-28 22:00N 58°06' W 138°16'1 1.3 15.5
2014-Aug-28 21:00N 58°05' W 138°14'0 0.3 15.5
2014-Aug-28 20:00N 58°05' W 138°14'3 0.5 15.5
2014-Aug-28 15:00N 58°04' W 138°09'0 0.2 15.4
2014-Aug-28 14:00N 58°04' W 138°09'0 0.2 15.5
2014-Aug-28 13:00N 58°04' W 138°09'1 1.0 15.5
2014-Aug-28 12:00N 58°04' W 138°11'3 1.6 15.5
2014-Aug-28 10:00N 58°01' W 138°09'1 0.2 15.5
2014-Aug-28 06:00N 58°01' W 138°07'0 0.3 15.6
2014-Aug-28 05:00N 58°01' W 138°07'2 2.0 15.6
2014-Aug-28 04:00N 58°01' W 138°03'1 1.2 15.7
2014-Aug-28 03:00N 58°01' W 138°05'0 0.4 15.7
2014-Aug-28 02:00N 58°01' W 138°05'0 0.2 15.7
2014-Aug-28 00:00N 58°02' W 138°05'0 0.2 15.8
2014-Aug-27 23:00N 58°02' W 138°06'1 1.2 15.8
2014-Aug-27 22:00N 58°01' W 138°08'0 0.2 15.8
2014-Aug-27 21:00N 58°01' W 138°08'0 0.4 15.7
2014-Aug-27 20:00N 58°00' W 138°07'2 0.9 15.6
2014-Aug-27 18:00N 57°59' W 138°05'0 0.0 15.4
2014-Aug-27 17:00N 57°59' W 138°05'1 0.8 15.3
2014-Aug-27 16:00N 57°59' W 138°04'1 0.4 15.3
2014-Aug-27 14:00N 57°60' W 138°03'0 0.4 15.3
2014-Aug-27 13:00N 57°60' W 138°02'0 0.3 15.3
2014-Aug-27 12:00N 58°00' W 138°02'2 1.8 15.3
2014-Aug-27 11:00N 57°59' W 138°04'0 0.0 15.3
2014-Aug-27 07:00N 57°59' W 138°04'0 0.3 15.4
2014-Aug-27 06:00N 57°59' W 138°04'1 0.9 15.4
2014-Aug-27 05:00N 57°58' W 138°03'1 1.4 15.4
2014-Aug-27 04:00N 57°59' W 138°00'0 0.4 15.4
2014-Aug-27 03:00N 57°58' W 138°01'1 0.6 15.5
2014-Aug-27 01:00N 57°59' W 138°00'1 0.7 15.5
2014-Aug-27 00:00N 58°00' W 138°01'0 0.0 15.5
2014-Aug-26 23:00N 58°00' W 138°01'1 1.0 15.4
2014-Aug-26 22:00N 57°60' W 138°03'0 0.1 15.4
2014-Aug-26 21:00N 57°60' W 138°03'1 1.1 15.4
2014-Aug-26 20:00N 57°59' W 138°03'0 0.0 15.4
2014-Aug-26 19:00N 57°59' W 138°03'1 0.8 15.4
2014-Aug-26 18:00N 57°58' W 138°02'0 0.5 15.4
2014-Aug-26 17:00N 57°58' W 138°02'0 0.0 15.3
2014-Aug-26 16:00N 57°58' W 138°03'1 0.9 15.3
2014-Aug-26 15:00N 57°57' W 138°01'1 0.9 15.3
2014-Aug-26 14:00N 57°58' W 138°00'0 0.2 15.3
2014-Aug-26 13:00N 57°58' W 137°60'1 0.7 15.4
2014-Aug-26 12:00N 57°59' W 137°60'0 0.0 15.4
2014-Aug-26 10:00N 57°59' W 137°60'1 0.4 15.4
2014-Aug-26 07:00N 57°59' W 138°02'1 0.3 15.5
2014-Aug-26 05:00N 57°59' W 138°02'0 0.5 15.5
2014-Aug-26 04:00N 57°58' W 138°01'0 0.2 15.5
2014-Aug-26 02:00N 57°58' W 138°01'1 0.7 15.5
2014-Aug-26 01:00N 57°58' W 137°60'0 0.0 15.6
2014-Aug-26 00:00N 57°58' W 137°60'1 0.6 15.6
2014-Aug-25 23:00N 57°59' W 138°00'1 1.0 15.5
2014-Aug-25 22:00N 57°59' W 137°59'1 0.8 15.5
2014-Aug-25 21:00N 57°60' W 137°59'1 0.5 15.4
2014-Aug-25 19:00N 57°59' W 138°01'0 0.0 15.3
2014-Aug-25 18:00N 57°59' W 138°01'0 0.0 15.3
2014-Aug-25 17:00N 57°59' W 138°01'0 0.2 15.3
2014-Aug-25 16:00N 57°59' W 138°01'0 0.4 15.3
2014-Aug-25 15:00N 57°59' W 138°01'0 0.4 15.3
2014-Aug-25 14:00N 57°59' W 138°00'1 1.0 15.3
2014-Aug-25 13:00N 57°58' W 137°59'1 0.5 15.3
2014-Aug-25 12:00N 57°59' W 137°58'0 0.3 15.2
2014-Aug-25 11:00N 57°58' W 137°58'2 0.8 15.2
2014-Aug-25 09:00N 58°00' W 137°58'0 0.2 15.2
2014-Aug-25 07:00N 57°60' W 137°59'0 0.1 15.2
2014-Aug-25 06:00N 57°60' W 137°59'0 0.1 15.2
2014-Aug-25 04:00N 57°60' W 137°59'1 0.8 15.2
2014-Aug-25 03:00N 57°59' W 137°58'1 0.7 15.2
2014-Aug-25 02:00N 57°59' W 137°57'1 0.9 15.2
2014-Aug-25 01:00N 57°58' W 137°57'0 0.0 15.2
2014-Aug-25 00:00N 57°58' W 137°57'0 0.0 15.3
2014-Aug-24 23:00N 57°58' W 137°57'0 0.0 15.4
2014-Aug-24 22:00N 57°58' W 137°57'0 0.4 15.4
2014-Aug-24 21:00N 57°57' W 137°57'0 0.2 15.5
2014-Aug-24 19:00N 57°57' W 137°56'2 0.7 15.6
2014-Aug-24 16:00N 57°55' W 137°57'0 0.2 15.6
2014-Aug-24 15:00N 57°55' W 137°57'1 0.5 15.7
2014-Aug-24 13:00N 57°54' W 137°56'1 0.6 15.7
2014-Aug-24 12:00N 57°54' W 137°54'0 0.2 15.7
2014-Aug-24 11:00N 57°55' W 137°55'1 0.1 15.7
2014-Aug-24 06:00N 57°55' W 137°56'0 0.1 15.7
2014-Aug-24 05:00N 57°55' W 137°56'1 1.0 15.7
2014-Aug-24 04:00N 57°54' W 137°55'1 0.7 15.8
2014-Aug-24 03:00N 57°54' W 137°54'0 0.0 15.9
2014-Aug-24 02:00N 57°54' W 137°54'0 0.0 15.9
2014-Aug-24 01:00N 57°54' W 137°54'1 0.6 15.8
2014-Aug-24 00:00N 57°54' W 137°53'0 0.3 15.7
2014-Aug-23 23:00N 57°54' W 137°52'1 0.3 15.6
2014-Aug-23 21:00N 57°54' W 137°52'2 0.8 15.5
2014-Aug-23 19:00N 57°55' W 137°55'1 0.6 15.4
2014-Aug-23 17:00N 57°54' W 137°53'0 0.0 15.3
2014-Aug-23 16:00N 57°54' W 137°53'0 0.1 15.2
2014-Aug-23 15:00N 57°54' W 137°54'0 0.4 15.2
2014-Aug-23 14:00N 57°54' W 137°53'0 0.3 15.2
2014-Aug-23 13:00N 57°53' W 137°53'1 0.7 15.2
2014-Aug-23 12:00N 57°54' W 137°52'0 0.2 15.2
2014-Aug-23 11:00N 57°54' W 137°51'0 0.1 15.3
2014-Aug-23 09:00N 57°54' W 137°51'1 0.7 15.3
2014-Aug-23 08:00N 57°54' W 137°53'0 0.2 15.4
2014-Aug-23 06:00N 57°54' W 137°52'1 0.9 15.4
2014-Aug-23 05:00N 57°53' W 137°51'0 0.0 15.4
2014-Aug-23 03:00N 57°53' W 137°51'0 0.0 15.4
2014-Aug-23 02:00N 57°53' W 137°51'1 0.7 15.5
2014-Aug-23 01:00N 57°53' W 137°52'0 0.2 15.6
2014-Aug-23 00:00N 57°53' W 137°52'   15.6

Dump ship's entire track history